createdAt,value
2019-03-20T00:02:04.649Z,96337.77
2019-03-20T00:04:34.158Z,96345.62
2019-03-20T00:07:03.655Z,96343.05
2019-03-20T00:09:33.160Z,96345.23
2019-03-20T00:12:03.932Z,96348.44
2019-03-20T00:14:33.448Z,96349.19
2019-03-20T00:17:04.010Z,96348.70
2019-03-20T00:19:33.714Z,96352.81
2019-03-20T00:22:03.218Z,96345.49
2019-03-20T00:24:32.742Z,96357.44
2019-03-20T00:27:02.240Z,96354.95
2019-03-20T00:29:31.755Z,96355.39
2019-03-20T00:32:02.786Z,96349.77
2019-03-20T00:34:32.302Z,96349.14
2019-03-20T00:37:01.827Z,96346.03
2019-03-20T00:39:31.342Z,96338.62
2019-03-20T00:42:00.839Z,96342.92
2019-03-20T00:44:30.371Z,96340.09
2019-03-20T00:46:59.863Z,96347.59
2019-03-20T00:49:29.938Z,96348.38
2019-03-20T00:51:59.458Z,96348.51
2019-03-20T00:54:28.972Z,96354.13
2019-03-20T00:56:58.483Z,96357.57
2019-03-20T00:59:27.998Z,96352.69
2019-03-20T01:01:58.353Z,96350.11
2019-03-20T01:04:27.872Z,96348.78
2019-03-20T01:06:57.373Z,96352.55
2019-03-20T01:09:26.885Z,96347.41
2019-03-20T01:11:56.387Z,96345.75
2019-03-20T01:14:26.605Z,96345.31
2019-03-20T01:16:56.095Z,96351.00
2019-03-20T01:19:25.633Z,96346.25
2019-03-20T01:21:55.181Z,96339.32
2019-03-20T01:24:24.713Z,96344.86
2019-03-20T01:26:54.848Z,96343.05
2019-03-20T01:29:24.348Z,96345.38
2019-03-20T01:31:53.848Z,96342.41
2019-03-20T01:34:23.400Z,96336.22
2019-03-20T01:36:52.897Z,96335.42
2019-03-20T01:39:23.130Z,96338.61
2019-03-20T01:41:52.639Z,96331.92
2019-03-20T01:44:22.191Z,96337.33
2019-03-20T01:46:51.691Z,96331.55
2019-03-20T01:49:21.203Z,96337.58
2019-03-20T01:51:51.429Z,96340.80
2019-03-20T01:54:21.019Z,96340.48
2019-03-20T01:56:50.557Z,96342.09
2019-03-20T01:59:20.090Z,96342.21
2019-03-20T02:01:49.603Z,96345.13
2019-03-20T02:04:19.750Z,96342.66
2019-03-20T02:06:49.308Z,96339.45
2019-03-20T02:09:18.795Z,96334.76
2019-03-20T02:11:48.313Z,96334.63
2019-03-20T02:14:17.837Z,96330.68
2019-03-20T02:16:48.078Z,96328.09
2019-03-20T02:19:17.593Z,96324.98
2019-03-20T02:21:47.117Z,96328.27
2019-03-20T02:24:16.639Z,96328.97
2019-03-20T02:26:46.154Z,96337.49
2019-03-20T02:29:16.351Z,96326.25
2019-03-20T02:31:45.907Z,96334.69
2019-03-20T02:34:15.474Z,96332.55
2019-03-20T02:36:45.003Z,96335.30
2019-03-20T02:39:14.506Z,96332.33
2019-03-20T02:41:44.637Z,96328.78
2019-03-20T02:44:14.137Z,96328.81
2019-03-20T02:46:43.672Z,96331.04
2019-03-20T02:49:13.192Z,96333.72
2019-03-20T02:51:42.753Z,96329.30
2019-03-20T02:54:12.798Z,96339.45
2019-03-20T02:56:42.353Z,96329.35
2019-03-20T02:59:11.841Z,96326.45
2019-03-20T03:01:41.362Z,96325.92
2019-03-20T03:04:10.887Z,96327.96
2019-03-20T03:06:41.190Z,96324.66
2019-03-20T03:09:10.694Z,96324.99
2019-03-20T03:11:40.205Z,96326.26
2019-03-20T03:14:09.698Z,96320.80
2019-03-20T03:16:39.222Z,96331.51
2019-03-20T03:19:09.491Z,96336.97
2019-03-20T03:21:39.010Z,96328.99
2019-03-20T03:24:08.587Z,96324.80
2019-03-20T03:26:38.152Z,96322.67
2019-03-20T03:29:07.630Z,96327.66
2019-03-20T03:31:37.832Z,96328.30
2019-03-20T03:34:07.333Z,96324.23
2019-03-20T03:36:36.892Z,96327.28
2019-03-20T03:39:08.019Z,96328.56
2019-03-20T03:41:37.752Z,96328.13
2019-03-20T03:44:07.530Z,96330.98
2019-03-20T03:46:37.043Z,96331.02
2019-03-20T03:49:06.541Z,96331.97
2019-03-20T03:51:36.221Z,96332.70
2019-03-20T03:54:06.701Z,96334.76
2019-03-20T03:56:36.315Z,96337.03
2019-03-20T03:59:06.173Z,96343.84
2019-03-20T04:01:35.682Z,96341.94
2019-03-20T04:04:05.194Z,96353.34
2019-03-20T04:06:36.107Z,96353.48
2019-03-20T04:09:07.527Z,96360.41
2019-03-20T04:11:37.912Z,96362.98
2019-03-20T04:14:07.401Z,96360.81
2019-03-20T04:16:37.038Z,96357.95
2019-03-20T04:19:06.554Z,96357.95
2019-03-20T04:21:36.143Z,96363.37
2019-03-20T04:24:06.277Z,96363.52
2019-03-20T04:26:35.798Z,96361.44
2019-03-20T04:29:05.314Z,96370.39
2019-03-20T04:31:34.842Z,96376.77
2019-03-20T04:34:04.656Z,96365.60
2019-03-20T04:36:43.047Z,96370.53
2019-03-20T04:39:07.578Z,96372.81
2019-03-20T04:41:37.105Z,96369.17
2019-03-20T04:44:07.611Z,96369.74
2019-03-20T04:46:37.135Z,96369.95
2019-03-20T04:49:06.648Z,96368.70
2019-03-20T04:51:36.193Z,96367.59
2019-03-20T04:54:25.072Z,96374.95
2019-03-20T04:56:54.623Z,96155.41
2019-03-20T04:59:24.138Z,96384.02
2019-03-20T05:01:53.676Z,96384.16
2019-03-20T05:04:23.213Z,96384.66
2019-03-20T05:07:12.052Z,96387.97
2019-03-20T05:09:41.557Z,96385.70
2019-03-20T05:12:11.070Z,96387.66
2019-03-20T05:14:40.578Z,96387.16
2019-03-20T05:17:10.638Z,96389.14
2019-03-20T05:19:40.183Z,96394.81
2019-03-20T05:22:09.706Z,96398.80
2019-03-20T05:24:39.238Z,96403.14
2019-03-20T05:27:08.820Z,96406.81
2019-03-20T05:29:39.009Z,96406.28
2019-03-20T05:32:08.566Z,96414.61
2019-03-20T05:34:38.071Z,96417.95
2019-03-20T05:37:10.672Z,96426.77
2019-03-20T05:39:38.837Z,96421.59
2019-03-20T05:42:08.624Z,96428.38
2019-03-20T05:44:38.174Z,96429.56
2019-03-20T05:47:07.681Z,96433.44
2019-03-20T05:49:37.238Z,96425.64
2019-03-20T05:52:06.731Z,96432.58
2019-03-20T05:54:36.229Z,96431.75
2019-03-20T05:57:05.772Z,96431.70
2019-03-20T05:59:35.280Z,96436.83
2019-03-20T06:02:04.821Z,96443.73
2019-03-20T06:04:34.318Z,96440.39
2019-03-20T06:07:03.843Z,96443.80
2019-03-20T06:09:33.367Z,96445.16
2019-03-20T06:12:03.134Z,96449.91
2019-03-20T06:14:32.631Z,96453.20
2019-03-20T06:17:02.822Z,96449.95
2019-03-20T06:22:33.160Z,96435.43
2019-03-20T06:25:02.715Z,96439.77
2019-03-20T06:27:53.021Z,96428.03
2019-03-20T06:30:22.960Z,96439.39
2019-03-20T06:32:52.492Z,96438.52
2019-03-20T06:35:22.011Z,96443.92
2019-03-20T06:37:51.538Z,96444.83
2019-03-20T06:40:21.112Z,96440.28
2019-03-20T06:42:50.646Z,96439.71
2019-03-20T06:45:21.541Z,96439.82
2019-03-20T06:47:51.099Z,96443.56
2019-03-20T06:50:24.662Z,96444.66
2019-03-20T06:52:54.169Z,96451.89
2019-03-20T06:55:24.920Z,96450.85
2019-03-20T06:57:54.434Z,96440.69
2019-03-20T07:00:40.691Z,96452.75
2019-03-20T07:03:26.441Z,96446.53
2019-03-20T07:06:12.700Z,96448.61
2019-03-20T07:08:52.659Z,96447.07
2019-03-20T07:11:20.571Z,96446.91
2019-03-20T07:13:50.707Z,96458.85
2019-03-20T07:16:20.270Z,96454.72
2019-03-20T07:18:49.783Z,96448.12
2019-03-20T07:21:38.615Z,96442.22
2019-03-20T07:24:08.117Z,96449.66
2019-03-20T07:26:37.630Z,96454.64
2019-03-20T07:29:07.133Z,96453.94
2019-03-20T07:31:36.620Z,96455.83
2019-03-20T07:34:06.262Z,96466.48
2019-03-20T07:36:35.814Z,96458.55
2019-03-20T07:39:09.388Z,96469.94
2019-03-20T07:41:38.874Z,96460.33
2019-03-20T07:44:08.393Z,96475.55
2019-03-20T07:46:57.266Z,96478.77
2019-03-20T07:49:47.213Z,96466.53
2019-03-20T07:52:16.752Z,96387.60
2019-03-20T07:54:46.249Z,96480.89
2019-03-20T07:57:15.759Z,96471.09
2019-03-20T07:59:45.293Z,96465.00
2019-03-20T08:02:14.825Z,96470.86
2019-03-20T08:04:44.341Z,96474.83
2019-03-20T08:07:13.816Z,96468.20
2019-03-20T08:09:43.800Z,96470.22
2019-03-20T08:12:13.286Z,96472.65
2019-03-20T08:14:42.828Z,96466.58
2019-03-20T08:17:12.319Z,96461.34
2019-03-20T08:19:41.852Z,96458.70
2019-03-20T08:22:11.873Z,96457.26
2019-03-20T08:24:41.412Z,96459.57
2019-03-20T08:27:10.929Z,96461.56
2019-03-20T08:29:40.476Z,96455.93
2019-03-20T08:32:09.990Z,96455.13
2019-03-20T08:34:39.529Z,96456.45
2019-03-20T08:37:09.004Z,96451.80
2019-03-20T08:39:38.530Z,96458.93
2019-03-20T08:42:08.067Z,96456.78
2019-03-20T08:44:37.603Z,96455.34
2019-03-20T08:47:07.128Z,96456.05
2019-03-20T08:49:36.714Z,96463.59
2019-03-20T08:52:06.256Z,96458.69
2019-03-20T08:54:35.793Z,96460.30
2019-03-20T08:57:05.432Z,96469.88
2019-03-20T08:59:34.938Z,96466.88
2019-03-20T09:02:04.523Z,96461.88
2019-03-20T09:04:35.789Z,96464.39
2019-03-20T09:07:05.399Z,96462.08
2019-03-20T09:09:34.944Z,96464.77
2019-03-20T09:12:04.512Z,96461.75
2019-03-20T09:14:34.080Z,96465.01
2019-03-20T09:17:03.690Z,96469.45
2019-03-20T09:19:33.212Z,96462.59
2019-03-20T09:22:02.701Z,96468.53
2019-03-20T09:24:32.209Z,96469.20
2019-03-20T09:27:01.732Z,96468.02
2019-03-20T09:29:35.953Z,96468.20
2019-03-20T09:32:02.501Z,96462.03
2019-03-20T09:34:32.006Z,96464.77
2019-03-20T09:37:01.769Z,96463.38
2019-03-20T09:39:31.287Z,96459.96
2019-03-20T09:42:00.932Z,96459.30
2019-03-20T09:44:30.441Z,96462.63
2019-03-20T09:46:59.925Z,96468.30
2019-03-20T09:49:29.442Z,96473.77
2019-03-20T09:51:58.961Z,96478.06
2019-03-20T09:54:28.467Z,96475.17
2019-03-20T09:56:57.951Z,96482.08
2019-03-20T09:59:27.461Z,96484.24
2019-03-20T10:01:58.182Z,96481.38
2019-03-20T10:04:27.708Z,96482.34
2019-03-20T10:06:57.223Z,96484.98
2019-03-20T10:09:26.752Z,96483.39
2019-03-20T10:11:57.522Z,96483.92
2019-03-20T10:14:27.253Z,96468.63
2019-03-20T10:16:56.723Z,96469.86
2019-03-20T10:19:26.303Z,96458.64
2019-03-20T10:21:55.829Z,96457.94
2019-03-20T10:24:25.402Z,96459.34
2019-03-20T10:26:54.916Z,96456.44
2019-03-20T10:29:24.445Z,96465.50
2019-03-20T10:31:53.974Z,96460.84
2019-03-20T10:34:23.496Z,96468.38
2019-03-20T10:36:53.058Z,96476.61
2019-03-20T10:39:23.040Z,96475.77
2019-03-20T10:41:52.579Z,96473.53
2019-03-20T10:44:22.201Z,96468.89
2019-03-20T10:46:51.774Z,96484.08
2019-03-20T10:49:21.333Z,96479.25
2019-03-20T10:51:51.186Z,96486.13
2019-03-20T10:54:20.735Z,96482.83
2019-03-20T10:56:50.311Z,96486.19
2019-03-20T10:59:19.851Z,96485.08
2019-03-20T11:01:49.394Z,96491.78
2019-03-20T11:04:19.302Z,96481.73
2019-03-20T11:06:48.910Z,96491.44
2019-03-20T11:09:18.851Z,96479.41
2019-03-20T11:11:48.446Z,96486.64
2019-03-20T11:14:17.990Z,96487.81
2019-03-20T11:16:48.432Z,96489.08
2019-03-20T11:19:17.968Z,96486.70
2019-03-20T11:21:47.553Z,96479.42
2019-03-20T11:24:17.159Z,96477.44
2019-03-20T11:26:46.775Z,96484.52
2019-03-20T11:29:21.520Z,96495.05
2019-03-20T11:31:48.088Z,96495.67
2019-03-20T11:34:17.598Z,96493.17
2019-03-20T11:36:47.140Z,96489.17
2019-03-20T11:39:16.715Z,96489.66
2019-03-20T11:41:46.416Z,96487.02
2019-03-20T11:44:16.174Z,96492.92
2019-03-20T11:46:45.753Z,96491.47
2019-03-20T11:49:15.351Z,96488.98
2019-03-20T11:51:44.911Z,96487.86
2019-03-20T11:54:14.456Z,96490.97
2019-03-20T11:56:44.099Z,96487.28
2019-03-20T11:59:13.756Z,96472.81
2019-03-20T12:01:43.344Z,96483.13
2019-03-20T12:04:12.876Z,96479.97
2019-03-20T12:06:42.439Z,96467.47
2019-03-20T12:09:13.291Z,96480.18
2019-03-20T12:11:46.213Z,96480.89
2019-03-20T12:14:14.100Z,96488.54
2019-03-20T12:16:43.660Z,96486.95
2019-03-20T12:19:13.193Z,96484.16
2019-03-20T12:21:42.712Z,96482.39
2019-03-20T12:24:12.254Z,96482.02
2019-03-20T12:26:41.771Z,96483.45
2019-03-20T12:29:11.385Z,96477.89
2019-03-20T12:31:41.110Z,96472.37
2019-03-20T12:34:10.661Z,96460.70
2019-03-20T12:36:40.191Z,96452.62
2019-03-20T12:39:09.753Z,96460.93
2019-03-20T12:41:39.372Z,96458.33
2019-03-20T12:44:08.902Z,96453.62
2019-03-20T12:46:41.690Z,96454.49
2019-03-20T12:49:09.712Z,96449.55
2019-03-20T12:51:39.240Z,96453.55
2019-03-20T12:54:08.778Z,96447.99
2019-03-20T12:56:38.326Z,96442.16
2019-03-20T12:59:07.857Z,96442.72
2019-03-20T13:01:38.504Z,96450.94
2019-03-20T13:04:08.040Z,96450.86
2019-03-20T13:06:37.557Z,96453.41
2019-03-20T13:09:08.546Z,96461.03
2019-03-20T13:11:38.079Z,96455.55
2019-03-20T13:14:07.609Z,96456.29
2019-03-20T13:16:37.178Z,96446.55
2019-03-20T13:19:06.866Z,96437.00
2019-03-20T13:21:36.408Z,96428.31
2019-03-20T13:24:06.074Z,96426.80
2019-03-20T13:26:35.670Z,96428.88
2019-03-20T13:29:05.227Z,96428.78
2019-03-20T13:31:54.104Z,96428.49
2019-03-20T13:34:23.665Z,96430.75
2019-03-20T13:36:53.198Z,96432.56
2019-03-20T13:39:22.745Z,96427.73
2019-03-20T13:41:52.280Z,96422.98
2019-03-20T13:44:21.863Z,96425.22
2019-03-20T13:46:51.398Z,96426.09
2019-03-20T13:49:21.001Z,96435.78
2019-03-20T13:51:50.524Z,96431.48
2019-03-20T13:54:20.044Z,96431.66
2019-03-20T13:56:49.629Z,96426.48
2019-03-20T13:59:19.153Z,96425.70
2019-03-20T14:01:48.701Z,96427.51
2019-03-20T14:04:19.066Z,96421.56
2019-03-20T14:06:48.613Z,96425.43
2019-03-20T14:09:18.135Z,96432.70
2019-03-20T14:11:47.739Z,96422.61
2019-03-20T14:14:17.260Z,96413.46
2019-03-20T14:16:46.785Z,96417.63
2019-03-20T14:19:16.304Z,96417.22
2019-03-20T14:21:45.884Z,96408.00
2019-03-20T14:24:15.392Z,96409.02
2019-03-20T14:26:44.926Z,96407.29
2019-03-20T14:29:14.459Z,96407.97
2019-03-20T14:31:43.995Z,96401.89
2019-03-20T14:34:13.547Z,96394.64
2019-03-20T14:36:43.114Z,96397.84
2019-03-20T14:39:12.622Z,96400.55
2019-03-20T14:41:42.160Z,96403.27
2019-03-20T14:44:11.719Z,96400.49
2019-03-20T14:46:41.295Z,96402.64
2019-03-20T14:49:10.816Z,96405.36
2019-03-20T14:51:40.388Z,96400.66
2019-03-20T14:54:10.003Z,96409.17
2019-03-20T14:56:39.554Z,96403.03
2019-03-20T14:59:09.081Z,96398.23
2019-03-20T15:01:38.619Z,96396.57
2019-03-20T15:04:09.266Z,96397.55
2019-03-20T15:06:38.827Z,96394.52
2019-03-20T15:09:09.495Z,96398.50
2019-03-20T15:11:39.058Z,96403.34
2019-03-20T15:14:08.620Z,96403.09
2019-03-20T15:16:38.156Z,96394.14
2019-03-20T15:19:07.672Z,96393.02
2019-03-20T15:21:37.219Z,96405.70
2019-03-20T15:24:06.767Z,96401.16
2019-03-20T15:26:36.317Z,96401.81
2019-03-20T15:29:05.904Z,96401.66
2019-03-20T15:31:35.447Z,96404.11
2019-03-20T15:34:04.974Z,96395.50
2019-03-20T15:36:34.518Z,96397.75
2019-03-20T15:39:05.549Z,96393.70
2019-03-20T15:41:35.088Z,96393.22
2019-03-20T15:44:04.684Z,96388.23
2019-03-20T15:46:34.241Z,96395.58
2019-03-20T15:49:03.877Z,96387.18
2019-03-20T15:51:33.413Z,96389.70
2019-03-20T15:54:02.965Z,96396.37
2019-03-20T15:56:33.741Z,96396.03
2019-03-20T15:59:03.272Z,96390.48
2019-03-20T16:01:32.818Z,96395.34
2019-03-20T16:04:02.433Z,96392.36
2019-03-20T16:06:31.967Z,96391.42
2019-03-20T16:09:02.258Z,96387.64
2019-03-20T16:11:31.804Z,96389.45
2019-03-20T16:14:01.389Z,96395.52
2019-03-20T16:16:50.269Z,96398.16
2019-03-20T16:19:39.131Z,96398.50
2019-03-20T16:22:08.695Z,96395.63
2019-03-20T16:24:38.237Z,96399.81
2019-03-20T16:27:07.769Z,96398.02
2019-03-20T16:29:37.309Z,96400.52
2019-03-20T16:32:06.857Z,96400.98
2019-03-20T16:34:36.374Z,96408.20
2019-03-20T16:37:05.998Z,96405.12
2019-03-20T16:39:35.550Z,96409.96
2019-03-20T16:42:05.232Z,96413.71
2019-03-20T16:44:34.773Z,96414.39
2019-03-20T16:47:04.407Z,96420.69
2019-03-20T16:49:33.926Z,96419.67
2019-03-20T16:52:03.483Z,96415.19
2019-03-20T16:54:52.353Z,96422.25
2019-03-20T16:57:22.001Z,96424.13
2019-03-20T16:59:51.536Z,96423.43
2019-03-20T17:02:21.116Z,96436.09
2019-03-20T17:04:50.651Z,96441.22
2019-03-20T17:07:20.200Z,96440.09
2019-03-20T17:09:49.714Z,96440.80
2019-03-20T17:12:19.271Z,96444.44
2019-03-20T17:14:48.807Z,96453.62
2019-03-20T17:17:18.341Z,96454.67
2019-03-20T17:19:47.903Z,96453.79
2019-03-20T17:22:17.628Z,96458.28
2019-03-20T17:24:47.178Z,96460.81
2019-03-20T17:27:16.750Z,96457.94
2019-03-20T17:29:46.286Z,96466.72
2019-03-20T17:32:15.890Z,96472.27
2019-03-20T17:34:45.809Z,96478.28
2019-03-20T17:37:15.344Z,96484.20
2019-03-20T17:39:44.877Z,96484.78
2019-03-20T17:42:14.431Z,96482.80
2019-03-20T17:44:44.004Z,96486.63
2019-03-20T17:47:14.750Z,96491.12
2019-03-20T17:49:44.298Z,96486.70
2019-03-20T17:52:13.821Z,96491.77
2019-03-20T17:54:43.368Z,96496.48
2019-03-20T17:57:12.889Z,96498.14
2019-03-20T17:59:43.367Z,96498.75
2019-03-20T18:02:12.986Z,96500.30
2019-03-20T18:04:42.526Z,96500.61
2019-03-20T18:07:12.051Z,96502.59
2019-03-20T18:09:41.597Z,96502.66
2019-03-20T18:12:11.505Z,96505.70
2019-03-20T18:14:41.068Z,96512.22
2019-03-20T18:17:10.602Z,96518.40
2019-03-20T18:19:40.170Z,96515.98
2019-03-20T18:22:29.065Z,96518.94
2019-03-20T18:24:58.608Z,96521.81
2019-03-20T18:27:28.133Z,96513.05
2019-03-20T18:29:57.667Z,96518.58
2019-03-20T18:32:27.534Z,96526.91
2019-03-20T18:34:57.077Z,96527.39
2019-03-20T18:37:26.601Z,96520.35
2019-03-20T18:39:56.174Z,96519.52
2019-03-20T18:42:25.684Z,96525.89
2019-03-20T18:44:55.628Z,96525.08
2019-03-20T18:47:25.179Z,96526.21
2019-03-20T18:49:54.668Z,96526.84
2019-03-20T18:52:24.663Z,96540.98
2019-03-20T18:54:54.225Z,96535.50
2019-03-20T18:57:23.776Z,96537.00
2019-03-20T18:59:53.294Z,96539.73
2019-03-20T19:02:42.142Z,96544.69
2019-03-20T19:05:22.251Z,96558.05
2019-03-20T19:07:51.813Z,96570.03
2019-03-20T19:10:22.184Z,96573.45
2019-03-20T19:12:51.729Z,96565.25
2019-03-20T19:15:21.237Z,96555.22
2019-03-20T19:17:50.720Z,96562.34
2019-03-20T19:20:20.304Z,96560.22
2019-03-20T19:22:50.598Z,96557.08
2019-03-20T19:25:20.164Z,96561.48
2019-03-20T19:27:49.622Z,96551.74
2019-03-20T19:30:27.075Z,96556.22
2019-03-20T19:32:56.580Z,96559.48
2019-03-20T19:35:26.131Z,96569.30
2019-03-20T19:37:55.650Z,96568.65
2019-03-20T19:40:25.684Z,96562.45
2019-03-20T19:42:55.251Z,96561.58
2019-03-20T19:45:24.816Z,96569.64
2019-03-20T19:47:54.319Z,96566.89
2019-03-20T19:50:24.885Z,96562.18
2019-03-20T19:52:54.385Z,96568.01
2019-03-20T19:55:23.911Z,96564.90
2019-03-20T19:57:53.447Z,96567.70
2019-03-20T20:00:29.215Z,96575.03
2019-03-20T20:02:58.710Z,96576.67
2019-03-20T20:05:28.241Z,96567.78
2019-03-20T20:07:57.741Z,96570.02
2019-03-20T20:10:27.269Z,96573.06
2019-03-20T20:12:56.768Z,96565.78
2019-03-20T20:15:30.612Z,96568.30
2019-03-20T20:18:19.459Z,96580.21
2019-03-20T20:20:48.986Z,96576.73
2019-03-20T20:26:26.579Z,96580.28
2019-03-20T20:28:56.070Z,96574.70
2019-03-20T20:31:27.025Z,96571.45
2019-03-20T20:33:56.526Z,96577.00
2019-03-20T20:36:26.853Z,96579.14
2019-03-20T20:38:56.370Z,96585.75
2019-03-20T20:41:25.892Z,96585.50
2019-03-20T20:43:55.602Z,96583.25
2019-03-20T20:46:25.142Z,96587.75
2019-03-20T20:48:54.638Z,96595.99
2019-03-20T20:51:24.156Z,96598.70
2019-03-20T20:53:53.649Z,96597.14
2019-03-20T20:56:23.873Z,96589.47
2019-03-20T20:58:53.375Z,96597.83
2019-03-20T21:01:22.914Z,96603.88
2019-03-20T21:03:52.409Z,96601.17
2019-03-20T21:06:21.927Z,96604.27
2019-03-20T21:08:52.166Z,96606.20
2019-03-20T21:11:21.694Z,96605.72
2019-03-20T21:13:51.194Z,96610.59
2019-03-20T21:16:20.709Z,96619.47
2019-03-20T21:18:57.438Z,96611.98
2019-03-20T21:21:26.946Z,96611.77
2019-03-20T21:24:23.659Z,96611.19
2019-03-20T21:27:21.880Z,96609.53
2019-03-20T21:30:34.995Z,96611.26
2019-03-20T21:33:14.901Z,96612.22
2019-03-20T21:36:35.896Z,96617.81
2019-03-20T21:39:07.607Z,96624.80
2019-03-20T21:42:16.054Z,96626.31
2019-03-20T21:45:26.352Z,96618.60
2019-03-20T21:47:55.866Z,96619.23
2019-03-20T21:50:56.528Z,96618.23
2019-03-20T21:54:03.851Z,96618.48
2019-03-20T21:56:43.499Z,96621.92
2019-03-20T21:59:35.415Z,96611.45
2019-03-20T22:02:43.288Z,96615.17
2019-03-20T22:06:10.830Z,96616.46
2019-03-20T22:08:40.307Z,96615.95
2019-03-20T22:11:34.019Z,96611.36
2019-03-20T22:14:12.791Z,96607.28
2019-03-20T22:17:06.412Z,96607.13
2019-03-20T22:20:04.125Z,96602.98
2019-03-20T22:22:43.459Z,96606.95
2019-03-20T22:25:41.455Z,96604.16
2019-03-20T22:28:52.901Z,96596.63
2019-03-20T22:31:22.888Z,96591.20
2019-03-20T22:34:30.201Z,96595.50
2019-03-20T22:36:59.721Z,96598.03
2019-03-20T22:39:53.147Z,96596.16
2019-03-20T22:42:52.491Z,96593.81
2019-03-20T22:46:05.671Z,96604.16
2019-03-20T22:49:11.185Z,96598.47
2019-03-20T22:52:28.837Z,96594.17
2019-03-20T22:55:43.866Z,96594.22
2019-03-20T22:58:26.881Z,96591.23
2019-03-20T23:01:00.387Z,96591.02
2019-03-20T23:03:46.579Z,96581.03
2019-03-20T23:06:16.124Z,96576.94
2019-03-20T23:08:45.655Z,96574.52
2019-03-20T23:11:15.227Z,96563.61
2019-03-20T23:13:44.730Z,96560.45
2019-03-20T23:16:19.400Z,96558.88
2019-03-20T23:18:48.914Z,96564.19
2019-03-20T23:21:18.414Z,96567.74
2019-03-20T23:23:47.938Z,96568.25
2019-03-20T23:26:17.426Z,96571.19
2019-03-20T23:28:46.945Z,96574.16
2019-03-20T23:31:16.492Z,96573.98
2019-03-20T23:33:47.110Z,96585.41
2019-03-20T23:36:16.578Z,96582.94
2019-03-20T23:38:46.138Z,96584.67
2019-03-20T23:41:15.643Z,96587.67
2019-03-20T23:44:04.800Z,96585.00
2019-03-20T23:46:34.652Z,96586.36
2019-03-20T23:49:17.955Z,96583.45
2019-03-20T23:51:47.519Z,96578.13
2019-03-20T23:54:21.261Z,96576.45
2019-03-20T23:56:50.789Z,96570.78
2019-03-20T23:59:20.311Z,96571.63
